O'Brien, Oregon
Current Conditions -  °F | °C
As of 11:56 PM on Thursday 23 Oct 2014 (Local Time) from KBOK Reporting Station
Clear Clear  
Wind Chill: 14°   Ceiling: Unl
Heat Index: 14°   Visibility: 9mi
Dew Point: 13°   Wind: 3mph
Humidity: 97%   Direction: 70°ENE
Pressure: 30"   Gusts: NA
Location:  42.07°N, 123.71°W
Report Text: KBOK 240656Z AUTO 07003KT 9SM CLR 14/13 A3000 RMK AO2 T01380133 401550133 SLP158
Loading
Personal Weather Stations






























Interactive Weather Map
Tropical Storm Tracking
New forecast layout! Learn more

10-Day Weather Forecast

Advertisements
Track Severe Weather on mobile